Time;durP1;ratioP1;P1;durP2;ratioP2;P2;SDS_P1;SDS_P2;PMS_P1;PMS_P2;Temp;Humidity;BMP_temperature;BMP_pressure;BME280_temperature;BME280_humidity;BME280_pressure;Samples;Min_cycle;Max_cycle;Signal;HPM_P1;HPM_P2
2021/10/02 00:46:07;;;;;;;69.93;47.50;;;7.40;87.10;;;;;;5075000;28;20484;-83
2021/10/02 00:48:35;;;;;;;73.47;48.25;;;7.40;86.90;;;;;;5074334;28;20024;-83
2021/10/02 00:51:00;;;;;;;67.15;47.28;;;7.30;87.00;;;;;;5074515;28;20108;-82
2021/10/02 00:53:27;;;;;;;70.47;46.22;;;7.30;87.20;;;;;;5073232;28;20096;-81
2021/10/02 00:55:53;;;;;;;65.63;42.88;;;7.30;88.00;;;;;;5056141;28;20028;-80
2021/10/02 00:58:19;;;;;;;66.57;43.30;;;7.30;88.80;;;;;;5055599;28;20033;-84
2021/10/02 01:00:48;;;;;;;63.05;43.60;;;7.30;88.60;;;;;;5060773;28;20116;-84
2021/10/02 01:03:47;;;;;;;65.13;43.72;;;7.40;88.70;;;;;;5094261;28;20028;-84
2021/10/02 01:06:33;;;;;;;67.10;46.28;;;7.50;90.50;;;;;;5076101;28;20066;-85
2021/10/02 01:09:16;;;;;;;74.13;47.55;;;7.60;90.10;;;;;;5076432;28;20039;-81
2021/10/02 01:12:02;;;;;;;75.35;44.67;;;7.60;90.10;;;;;;5094428;28;20028;-85
2021/10/02 01:14:48;;;;;;;69.43;45.83;;;7.70;88.70;;;;;;5075768;28;20028;-86
2021/10/02 01:17:30;;;;;;;66.28;45.08;;;7.60;88.30;;;;;;5076429;28;20051;-81
2021/10/02 01:20:07;;;;;;;65.70;45.70;;;7.50;87.80;;;;;;5075657;28;20111;-84
2021/10/02 01:22:40;;;;;;;73.00;48.33;;;7.50;88.50;;;;;;5075696;28;20127;-84
2021/10/02 01:25:24;;;;;;;73.53;48.10;;;7.40;88.50;;;;;;5094140;28;20437;-80
2021/10/02 01:27:55;;;;;;;70.95;47.28;;;7.40;87.80;;;;;;5068161;28;20102;-82
2021/10/02 01:33:54;;;;;;;85.70;56.72;;;7.10;87.20;;;;;;5078866;28;20096;-83
2021/10/02 01:47:14;;;;;;;82.63;56.47;;;6.80;90.50;;;;;;5065891;28;20051;-82
2021/10/02 01:49:42;;;;;;;80.38;54.50;;;6.80;90.10;;;;;;5053731;28;20036;-81
2021/10/02 01:52:09;;;;;;;77.55;53.92;;;6.70;90.10;;;;;;5035570;28;20044;-84
2021/10/02 01:54:37;;;;;;;76.15;53.70;;;6.60;90.00;;;;;;5053579;28;20032;-83
2021/10/02 01:57:05;;;;;;;76.05;52.58;;;6.60;90.30;;;;;;5049680;28;20170;-83
2021/10/02 01:59:33;;;;;;;41.38;31.00;;;6.60;90.40;;;;;;5075791;28;20173;-84
2021/10/02 02:02:00;;;;;;;75.43;51.55;;;6.70;93.00;;;;;;5075687;28;20035;-84
2021/10/02 02:04:28;;;;;;;78.57;51.03;;;6.80;92.40;;;;;;5077773;28;20028;-85
2021/10/02 02:06:57;;;;;;;81.88;52.58;;;6.80;91.50;;;;;;5079383;28;20055;-84
2021/10/02 02:09:25;;;;;;;75.10;47.35;;;6.90;91.10;;;;;;5080544;28;20032;-85
2021/10/02 02:11:51;;;;;;;96.35;56.80;;;6.90;91.70;;;;;;5078891;28;20081;-85
2021/10/02 02:14:18;;;;;;;71.75;46.72;;;6.90;91.20;;;;;;5097886;28;20028;-84
2021/10/02 02:16:47;;;;;;;41.28;30.27;;;6.90;90.90;;;;;;5080966;28;20076;-84
2021/10/02 02:19:15;;;;;;;59.72;40.42;;;6.90;92.20;;;;;;5098117;28;20077;-85
2021/10/02 02:21:45;;;;;;;73.97;50.30;;;6.90;92.20;;;;;;5080301;28;20107;-82
2021/10/02 02:24:11;;;;;;;61.40;40.90;;;7.00;91.70;;;;;;5079089;28;20470;-82
2021/10/02 02:26:37;;;;;;;47.80;34.50;;;7.00;91.70;;;;;;5077379;28;20043;-84
2021/10/02 02:29:05;;;;;;;36.45;25.63;;;7.00;92.50;;;;;;5058933;28;20024;-81
2021/10/02 02:31:32;;;;;;;34.10;23.55;;;7.10;93.80;;;;;;5053953;28;20029;-85
2021/10/02 02:33:58;;;;;;;31.52;23.65;;;7.20;94.10;;;;;;5037872;28;20025;-82
2021/10/02 02:36:25;;;;;;;68.93;47.63;;;7.30;94.40;;;;;;5055899;28;20033;-80
2021/10/02 02:38:50;;;;;;;61.17;41.40;;;7.40;92.10;;;;;;5038110;28;20037;-84
2021/10/02 02:41:16;;;;;;;37.10;23.92;;;7.40;91.20;;;;;;5055816;28;20025;-85
2021/10/02 02:43:42;;;;;;;26.23;19.27;;;7.40;92.20;;;;;;5038111;28;20438;-83
2021/10/02 02:46:17;;;;;;;31.92;23.92;;;7.50;92.60;;;;;;5056078;28;20482;-85
2021/10/02 02:49:02;;;;;;;48.85;31.95;;;7.70;92.70;;;;;;5039074;28;20203;-85
2021/10/02 02:51:36;;;;;;;58.35;37.38;;;7.80;91.80;;;;;;5038883;28;20052;-85
2021/10/02 02:54:12;;;;;;;54.58;33.47;;;7.90;90.70;;;;;;5056093;28;20029;-86
2021/10/02 02:56:43;;;;;;;39.72;27.95;;;7.90;90.50;;;;;;5037590;28;20112;-86
2021/10/02 02:59:15;;;;;;;34.33;24.83;;;7.90;90.60;;;;;;5090321;28;20031;-85
2021/10/02 03:01:42;;;;;;;67.25;45.15;;;7.90;90.50;;;;;;5096282;28;20020;-86
2021/10/02 03:04:14;;;;;;;65.45;46.15;;;7.80;88.30;;;;;;5077731;28;20024;-82
2021/10/02 03:06:45;;;;;;;75.70;51.33;;;7.60;87.30;;;;;;5077405;28;20051;-84
2021/10/02 03:09:14;;;;;;;51.28;35.83;;;7.40;87.20;;;;;;5078197;28;20028;-83
2021/10/02 03:11:43;;;;;;;49.05;32.47;;;7.20;90.30;;;;;;5082191;28;20035;-80
2021/10/02 03:14:09;;;;;;;49.28;33.03;;;7.30;91.40;;;;;;5088169;28;20024;-81
2021/10/02 03:16:36;;;;;;;54.83;37.80;;;7.30;91.70;;;;;;5087768;28;20056;-84
2021/10/02 03:19:05;;;;;;;64.07;42.80;;;7.40;91.30;;;;;;5107381;28;20028;-84
2021/10/02 03:21:31;;;;;;;65.78;46.05;;;7.40;90.40;;;;;;5096511;28;20012;-85
2021/10/02 03:23:57;;;;;;;51.97;35.90;;;7.40;89.40;;;;;;5101353;28;20051;-82
2021/10/02 03:26:24;;;;;;;52.58;38.10;;;7.30;90.10;;;;;;5081801;28;20070;-84
2021/10/02 03:28:51;;;;;;;63.67;44.20;;;7.30;90.70;;;;;;5098885;28;20024;-83
2021/10/02 03:31:18;;;;;;;74.70;51.00;;;7.30;91.00;;;;;;5074780;28;20097;-82
2021/10/02 03:33:45;;;;;;;79.72;52.63;;;7.30;89.90;;;;;;5056897;28;20025;-85
2021/10/02 03:36:11;;;;;;;78.18;51.65;;;7.20;87.80;;;;;;5056761;28;20433;-83
2021/10/02 03:38:37;;;;;;;96.40;63.97;;;7.00;87.10;;;;;;5056441;28;20032;-85
2021/10/02 03:41:04;;;;;;;91.97;65.40;;;6.80;86.50;;;;;;5074490;28;20367;-85
2021/10/02 03:43:32;;;;;;;75.35;49.72;;;6.60;87.50;;;;;;5074945;28;20032;-86
2021/10/02 03:45:58;;;;;;;74.00;49.38;;;6.60;90.10;;;;;;5056556;28;20395;-84
2021/10/02 03:48:24;;;;;;;81.18;54.08;;;6.60;91.00;;;;;;5056327;28;20035;-85
2021/10/02 03:50:50;;;;;;;74.78;55.30;;;6.60;90.50;;;;;;5090034;28;20428;-85
2021/10/02 03:53:16;;;;;;;78.00;53.72;;;6.60;91.20;;;;;;5094574;28;20028;-84
2021/10/02 03:55:42;;;;;;;61.85;45.08;;;6.70;90.90;;;;;;5076619;28;20054;-87
2021/10/02 03:58:07;;;;;;;62.67;46.10;;;6.70;91.40;;;;;;5076538;28;20378;-82
2021/10/02 04:00:33;;;;;;;60.97;43.55;;;6.80;91.60;;;;;;5076248;28;20024;-86
2021/10/02 04:02:59;;;;;;;59.92;41.75;;;6.90;91.80;;;;;;5094470;28;20028;-80
2021/10/02 04:05:25;;;;;;;60.72;41.03;;;7.00;91.70;;;;;;5076352;28;20035;-81
2021/10/02 04:07:50;;;;;;;58.60;41.90;;;7.10;91.50;;;;;;5057152;28;20049;-82
2021/10/02 04:10:16;;;;;;;63.88;44.85;;;7.20;91.10;;;;;;5054095;28;20060;-83
2021/10/02 04:12:42;;;;;;;78.03;49.47;;;7.30;90.90;;;;;;5054087;28;20418;-84
2021/10/02 04:15:09;;;;;;;76.90;53.58;;;7.40;91.00;;;;;;5053806;28;20035;-85
2021/10/02 04:17:35;;;;;;;62.33;43.65;;;7.70;90.50;;;;;;5053907;28;20044;-82
2021/10/02 04:20:02;;;;;;;65.85;41.92;;;7.90;89.90;;;;;;5037667;28;20026;-83
2021/10/02 04:22:28;;;;;;;74.38;53.47;;;8.20;88.60;;;;;;5032418;28;20026;-84
2021/10/02 04:24:54;;;;;;;99.90;68.22;;;8.50;87.20;;;;;;5032731;28;20030;-84
2021/10/02 04:27:19;;;;;;;85.10;59.10;;;8.80;85.90;;;;;;5032507;28;20026;-85
2021/10/02 04:29:45;;;;;;;115.78;82.85;;;9.10;84.20;;;;;;5032809;28;20033;-85
2021/10/02 04:32:11;;;;;;;153.77;109.05;;;9.40;83.30;;;;;;5022825;28;20033;-83
2021/10/02 04:34:37;;;;;;;121.38;81.65;;;9.80;81.30;;;;;;5014003;28;20071;-80
2021/10/02 04:37:02;;;;;;;82.32;56.65;;;10.10;80.10;;;;;;5012558;28;20120;-87
2021/10/02 04:39:28;;;;;;;62.60;45.72;;;10.40;78.70;;;;;;5012765;28;20036;-79
2021/10/02 04:41:54;;;;;;;75.93;48.63;;;10.70;77.60;;;;;;5012847;28;20034;-84
2021/10/02 04:44:21;;;;;;;73.45;48.30;;;11.00;76.60;;;;;;5012738;28;20026;-83
2021/10/02 04:46:47;;;;;;;76.30;49.33;;;11.40;75.80;;;;;;5012781;28;20472;-84
2021/10/02 04:49:12;;;;;;;91.20;56.90;;;11.70;74.80;;;;;;5019210;28;20030;-86
2021/10/02 04:51:38;;;;;;;73.78;48.28;;;12.00;74.10;;;;;;5032136;28;20032;-86
2021/10/02 04:54:05;;;;;;;80.43;52.35;;;12.30;73.00;;;;;;5032992;28;20025;-83
2021/10/02 04:56:32;;;;;;;65.75;44.70;;;12.80;72.00;;;;;;5038695;28;20040;-86
2021/10/02 04:58:58;;;;;;;51.95;34.45;;;13.20;70.40;;;;;;5032560;28;20044;-87
2021/10/02 05:01:24;;;;;;;50.10;33.97;;;13.50;68.90;;;;;;5032229;28;20121;-87
2021/10/02 05:03:49;;;;;;;52.65;35.60;;;13.90;67.70;;;;;;5032065;28;20124;-87
2021/10/02 05:06:15;;;;;;;53.65;34.97;;;14.30;66.60;;;;;;5038118;28;20029;-88
2021/10/02 05:08:41;;;;;;;53.63;33.67;;;14.70;65.70;;;;;;5080502;28;20147;-89
2021/10/02 05:11:07;;;;;;;47.00;29.30;;;15.00;64.50;;;;;;5061735;28;20064;-83
2021/10/02 05:13:42;;;;;;;59.97;40.63;;;15.30;63.20;;;;;;5056920;28;20033;-85
2021/10/02 05:16:08;;;;;;;62.45;40.70;;;15.70;62.50;;;;;;5063286;28;20039;-89
2021/10/02 05:18:37;;;;;;;56.72;32.28;;;16.00;62.10;;;;;;5078151;28;20068;-85
2021/10/02 05:21:06;;;;;;;40.80;28.75;;;16.20;61.10;;;;;;5084063;28;20054;-89
2021/10/02 05:23:32;;;;;;;44.90;29.23;;;16.50;60.10;;;;;;5086397;28;20369;-82
2021/10/02 05:25:57;;;;;;;44.22;28.35;;;16.90;59.20;;;;;;5081169;28;20044;-85
2021/10/02 05:28:24;;;;;;;41.22;27.50;;;17.10;58.50;;;;;;5082144;28;20032;-85
2021/10/02 05:30:56;;;;;;;35.70;24.83;;;17.40;57.60;;;;;;5051843;28;20033;-88
2021/10/02 05:33:24;;;;;;;37.80;26.85;;;17.60;56.70;;;;;;5052419;28;20021;-88
2021/10/02 05:35:53;;;;;;;39.20;27.27;;;17.80;56.40;;;;;;5068901;28;20459;-82
2021/10/02 05:38:21;;;;;;;36.63;25.65;;;18.00;55.80;;;;;;5063493;28;20062;-82
2021/10/02 05:40:50;;;;;;;36.00;23.40;;;18.30;55.20;;;;;;5082278;28;20111;-92
2021/10/02 05:43:16;;;;;;;39.38;24.70;;;18.60;54.70;;;;;;5083449;28;20025;-86
2021/10/02 05:45:42;;;;;;;37.15;24.67;;;19.10;54.30;;;;;;5087626;28;20082;-84
2021/10/02 05:48:07;;;;;;;34.58;21.20;;;19.40;53.40;;;;;;5058341;28;20111;-81
2021/10/02 05:50:33;;;;;;;39.08;21.60;;;19.50;53.30;;;;;;5079119;28;20028;-82
2021/10/02 05:52:59;;;;;;;31.92;19.08;;;19.60;52.50;;;;;;5060347;28;20032;-83
2021/10/02 05:55:25;;;;;;;21.67;15.30;;;19.80;51.70;;;;;;5059237;28;20036;-83
2021/10/02 05:57:51;;;;;;;24.02;15.00;;;20.10;50.70;;;;;;5042476;28;20036;-83
2021/10/02 06:00:16;;;;;;;25.48;16.70;;;20.20;49.90;;;;;;5040155;28;20099;-82
2021/10/02 06:02:42;;;;;;;23.45;14.40;;;20.30;50.60;;;;;;5039529;28;20482;-76
2021/10/02 06:05:08;;;;;;;20.73;12.88;;;20.40;49.50;;;;;;5041750;28;20025;-83
2021/10/02 06:07:37;;;;;;;24.33;14.85;;;20.50;49.00;;;;;;5041108;28;20239;-86
2021/10/02 06:10:03;;;;;;;17.80;11.70;;;20.70;49.00;;;;;;5041351;28;20466;-84
2021/10/02 06:12:29;;;;;;;18.13;11.38;;;20.90;48.60;;;;;;5044965;28;20052;-82
2021/10/02 06:14:55;;;;;;;20.08;10.82;;;21.30;47.40;;;;;;5044069;28;20048;-83
2021/10/02 06:17:21;;;;;;;16.95;10.23;;;21.60;46.60;;;;;;5044282;28;20029;-86
2021/10/02 06:19:49;;;;;;;16.17;9.93;;;21.80;45.80;;;;;;5045483;28;20048;-83
2021/10/02 06:22:15;;;;;;;15.98;9.88;;;22.00;45.50;;;;;;5055453;28;20115;-80
2021/10/02 06:24:40;;;;;;;19.70;11.80;;;22.20;45.10;;;;;;5058197;28;20056;-87
2021/10/02 06:27:06;;;;;;;19.58;11.27;;;22.30;45.10;;;;;;5076663;28;20028;-90
2021/10/02 06:29:33;;;;;;;18.42;10.85;;;22.40;45.50;;;;;;5058246;28;20035;-85
2021/10/02 06:31:59;;;;;;;26.88;14.25;;;22.50;46.10;;;;;;5060508;28;20073;-85
2021/10/02 06:34:25;;;;;;;19.55;12.60;;;22.60;46.70;;;;;;5063504;28;20028;-82
2021/10/02 06:36:50;;;;;;;19.45;10.63;;;22.80;47.20;;;;;;5062434;28;20028;-85
2021/10/02 06:39:16;;;;;;;17.48;10.73;;;23.00;47.50;;;;;;5081801;28;20083;-84
2021/10/02 06:41:42;;;;;;;15.00;10.70;;;23.20;47.50;;;;;;5061884;28;20482;-84
2021/10/02 06:44:11;;;;;;;18.10;9.82;;;23.30;47.40;;;;;;5063091;28;20028;-83
2021/10/02 06:46:39;;;;;;;14.52;9.43;;;23.30;47.60;;;;;;5062636;28;20437;-84
2021/10/02 06:49:07;;;;;;;13.15;8.73;;;23.10;47.80;;;;;;5058890;28;20024;-82
2021/10/02 06:51:33;;;;;;;14.80;9.82;;;22.90;48.10;;;;;;5064069;28;20028;-84
2021/10/02 06:54:02;;;;;;;13.63;9.20;;;22.60;49.10;;;;;;5064555;28;20432;-84
2021/10/02 06:56:28;;;;;;;15.32;10.70;;;22.50;50.20;;;;;;5061413;28;20039;-84
2021/10/02 06:58:54;;;;;;;15.23;10.30;;;22.40;50.90;;;;;;5062909;28;20020;-82
2021/10/02 07:01:19;;;;;;;18.23;12.27;;;22.20;51.30;;;;;;5061952;28;20028;-82
2021/10/02 07:03:45;;;;;;;17.75;11.30;;;21.90;52.00;;;;;;5062155;28;20021;-83
2021/10/02 07:06:14;;;;;;;13.45;10.38;;;21.80;53.20;;;;;;5080077;28;20065;-82
2021/10/02 07:08:42;;;;;;;15.25;10.27;;;21.90;52.30;;;;;;5060405;28;20028;-83
2021/10/02 07:11:08;;;;;;;14.90;9.70;;;21.70;52.20;;;;;;5062894;28;20031;-83
2021/10/02 07:13:33;;;;;;;16.85;12.10;;;21.60;52.50;;;;;;5078718;28;20025;-84
2021/10/02 07:15:59;;;;;;;19.30;12.02;;;21.60;52.80;;;;;;5061328;28;20055;-85
2021/10/02 07:18:25;;;;;;;14.25;10.68;;;21.70;52.30;;;;;;5059780;28;20062;-83
2021/10/02 07:20:51;;;;;;;13.23;9.52;;;21.90;52.10;;;;;;5063744;28;20035;-83
2021/10/02 07:23:19;;;;;;;13.85;9.93;;;22.00;51.70;;;;;;5061553;28;20065;-84
2021/10/02 07:25:46;;;;;;;15.15;10.13;;;22.00;51.50;;;;;;5059033;28;20032;-85
2021/10/02 07:28:12;;;;;;;14.00;9.55;;;21.90;51.80;;;;;;5056974;28;20425;-85
2021/10/02 07:30:38;;;;;;;15.77;10.15;;;22.10;51.90;;;;;;5075008;28;20025;-85
2021/10/02 07:33:03;;;;;;;16.30;9.90;;;22.20;51.40;;;;;;5056931;28;20071;-85
2021/10/02 07:35:29;;;;;;;16.30;10.38;;;22.30;50.90;;;;;;5056792;28;20056;-85
2021/10/02 07:37:55;;;;;;;16.33;10.52;;;22.50;50.70;;;;;;5061179;28;20119;-85
2021/10/02 07:40:20;;;;;;;14.73;11.40;;;22.90;50.50;;;;;;5064168;28;20075;-84
2021/10/02 07:42:51;;;;;;;14.90;11.30;;;23.20;49.50;;;;;;5057528;28;20028;-83
2021/10/02 07:45:20;;;;;;;15.35;9.30;;;23.50;49.20;;;;;;5057027;28;20029;-84
2021/10/02 07:47:47;;;;;;;14.32;8.95;;;23.80;47.70;;;;;;5074736;28;20028;-84
2021/10/02 07:50:17;;;;;;;15.30;9.30;;;23.60;47.10;;;;;;5074939;28;20075;-85
2021/10/02 07:52:43;;;;;;;12.68;8.70;;;23.40;47.20;;;;;;5056584;28;20029;-83
2021/10/02 07:55:12;;;;;;;13.20;8.32;;;23.40;47.20;;;;;;5056510;28;20028;-84
2021/10/02 07:57:39;;;;;;;12.30;7.45;;;23.50;46.80;;;;;;5056862;28;20097;-84
2021/10/02 08:00:07;;;;;;;11.15;8.05;;;23.40;46.60;;;;;;5074685;28;20537;-83
2021/10/02 08:02:33;;;;;;;13.38;7.97;;;23.40;46.70;;;;;;5056247;28;20033;-82
2021/10/02 08:05:00;;;;;;;12.18;7.20;;;23.40;46.20;;;;;;5074228;28;20150;-81
2021/10/02 08:07:28;;;;;;;12.85;6.88;;;23.40;45.80;;;;;;5055974;28;20059;-85
2021/10/02 08:09:54;;;;;;;10.93;7.90;;;23.50;45.70;;;;;;5068970;28;20058;-84
2021/10/02 08:12:20;;;;;;;11.10;7.32;;;23.60;45.80;;;;;;5094395;28;20466;-81
2021/10/02 08:14:45;;;;;;;10.40;6.95;;;23.70;45.80;;;;;;5094671;28;20098;-83
2021/10/02 08:17:12;;;;;;;11.30;6.10;;;23.80;45.80;;;;;;5076274;28;20032;-83
2021/10/02 08:19:40;;;;;;;9.13;6.28;;;24.10;45.20;;;;;;5094202;28;20024;-84
2021/10/02 08:22:07;;;;;;;11.38;7.57;;;24.00;45.20;;;;;;5076105;28;20024;-84
2021/10/02 08:24:33;;;;;;;9.32;6.97;;;24.10;45.40;;;;;;5094272;28;20032;-83
2021/10/02 08:26:59;;;;;;;8.55;6.00;;;24.10;44.90;;;;;;5094186;28;20024;-84
2021/10/02 08:29:26;;;;;;;8.90;5.65;;;24.10;44.70;;;;;;5094137;28;20036;-85
2021/10/02 08:31:52;;;;;;;7.72;4.80;;;24.10;44.40;;;;;;5076111;28;20032;-83
2021/10/02 08:34:18;;;;;;;10.55;5.20;;;24.00;43.50;;;;;;5075744;28;20028;-83
2021/10/02 08:36:44;;;;;;;9.02;6.20;;;23.70;43.10;;;;;;5093920;28;20036;-84
2021/10/02 08:39:11;;;;;;;9.45;5.95;;;23.50;43.70;;;;;;5082536;28;20032;-83
2021/10/02 08:41:38;;;;;;;12.50;6.53;;;23.20;44.00;;;;;;5074393;28;20025;-83
2021/10/02 08:44:05;;;;;;;10.98;7.43;;;23.10;44.20;;;;;;5055929;28;20415;-83
2021/10/02 08:46:31;;;;;;;8.95;6.35;;;23.10;43.50;;;;;;5074044;28;20424;-83
2021/10/02 08:49:26;;;;;;;13.20;9.48;;;22.90;43.50;;;;;;5055502;28;20028;-83
2021/10/02 08:51:52;;;;;;;8.40;5.20;;;22.70;44.10;;;;;;5056154;28;20085;-84
2021/10/02 08:54:19;;;;;;;11.52;4.90;;;22.90;43.30;;;;;;5055658;28;20024;-83
2021/10/02 08:56:48;;;;;;;9.57;5.00;;;22.80;42.80;;;;;;5073257;28;20429;-82
2021/10/02 08:59:14;;;;;;;8.82;5.60;;;22.70;43.00;;;;;;5055516;28;20171;-83
2021/10/02 09:01:41;;;;;;;7.40;5.10;;;22.60;43.60;;;;;;5073352;28;20390;-84
2021/10/02 09:04:07;;;;;;;9.23;5.65;;;22.60;43.40;;;;;;5055272;28;20029;-83
2021/10/02 09:06:36;;;;;;;10.43;5.40;;;22.50;43.40;;;;;;5055109;28;20048;-82
2021/10/02 09:09:03;;;;;;;11.57;5.68;;;22.30;43.90;;;;;;5071352;28;20056;-83
2021/10/02 09:11:30;;;;;;;12.93;6.90;;;22.40;44.20;;;;;;5075782;28;20035;-83
2021/10/02 09:13:56;;;;;;;9.50;6.97;;;22.40;44.60;;;;;;5076663;28;20027;-82
2021/10/02 09:16:21;;;;;;;13.80;6.45;;;22.60;44.10;;;;;;5079431;28;20049;-81
2021/10/02 09:18:48;;;;;;;10.07;5.60;;;22.60;43.60;;;;;;5097391;28;20466;-82
2021/10/02 09:21:13;;;;;;;11.18;7.10;;;22.60;43.50;;;;;;5079550;28;20047;-82
2021/10/02 09:23:45;;;;;;;12.10;6.72;;;22.50;43.10;;;;;;5097366;28;20462;-79
2021/10/02 09:26:12;;;;;;;12.50;6.97;;;22.40;43.00;;;;;;5079461;28;20074;-82
2021/10/02 09:28:40;;;;;;;9.25;7.05;;;22.30;43.00;;;;;;5079300;28;20420;-83
2021/10/02 09:31:06;;;;;;;8.50;5.70;;;22.20;42.60;;;;;;5079026;28;20111;-82
2021/10/02 09:33:32;;;;;;;10.15;6.93;;;22.30;42.30;;;;;;5097318;28;20051;-81
2021/10/02 09:35:58;;;;;;;9.07;5.72;;;22.40;42.20;;;;;;5097458;28;20054;-83
2021/10/02 09:38:24;;;;;;;11.65;6.13;;;22.60;42.00;;;;;;5078015;28;20032;-82
2021/10/02 09:40:54;;;;;;;10.93;6.38;;;22.80;41.50;;;;;;5079061;28;20477;-82
2021/10/02 09:43:20;;;;;;;7.15;4.13;;;22.90;40.30;;;;;;5078737;28;20474;-79
2021/10/02 09:45:47;;;;;;;5.45;3.63;;;22.80;39.30;;;;;;5097517;28;20149;-82
2021/10/02 09:48:16;;;;;;;5.95;3.80;;;22.40;39.00;;;;;;5079311;28;20466;-81
2021/10/02 09:50:44;;;;;;;8.07;5.55;;;22.10;39.30;;;;;;5097478;28;20050;-81
2021/10/02 09:53:18;;;;;;;8.65;4.50;;;22.00;40.00;;;;;;5078895;28;20024;-83
2021/10/02 09:55:53;;;;;;;7.85;4.88;;;22.10;39.90;;;;;;5078423;28;20024;-82
2021/10/02 09:58:28;;;;;;;7.00;4.10;;;22.10;40.20;;;;;;5079298;28;20032;-82
2021/10/02 10:00:55;;;;;;;12.23;4.50;;;22.20;39.10;;;;;;5078789;28;20406;-82
2021/10/02 10:03:21;;;;;;;6.93;4.03;;;22.30;38.80;;;;;;5097188;28;20470;-81
2021/10/02 10:05:53;;;;;;;6.38;3.90;;;22.30;38.10;;;;;;5096103;28;20042;-83
2021/10/02 10:08:26;;;;;;;4.65;3.50;;;22.30;38.00;;;;;;5014711;28;20054;-82
2021/10/02 10:11:13;;;;;;;5.05;3.50;;;22.20;37.10;;;;;;5014242;28;20029;-81
2021/10/02 10:13:39;;;;;;;7.18;3.80;;;22.00;37.90;;;;;;5014278;28;20030;-79
2021/10/02 10:16:09;;;;;;;7.78;3.72;;;21.80;37.80;;;;;;5014202;28;20034;-81
2021/10/02 10:18:38;;;;;;;7.28;4.15;;;21.70;37.80;;;;;;5013877;28;20033;-82
2021/10/02 10:21:09;;;;;;;6.95;3.85;;;21.70;38.50;;;;;;5015438;28;20042;-81
2021/10/02 10:23:37;;;;;;;5.57;3.78;;;21.80;38.20;;;;;;5015766;28;20036;-81
2021/10/02 10:26:15;;;;;;;9.43;4.10;;;21.90;37.90;;;;;;5015278;28;20109;-82
2021/10/02 10:28:43;;;;;;;5.38;3.42;;;21.90;38.20;;;;;;5014210;28;20111;-81
2021/10/02 10:31:15;;;;;;;6.13;2.97;;;22.20;38.40;;;;;;5013664;28;20022;-82
2021/10/02 10:33:43;;;;;;;6.45;3.00;;;22.40;37.80;;;;;;5013817;28;20164;-80
2021/10/02 10:36:12;;;;;;;6.28;3.63;;;22.50;37.90;;;;;;5037906;28;20029;-82
2021/10/02 10:38:39;;;;;;;6.22;3.58;;;22.60;37.80;;;;;;5044425;28;20037;-84
2021/10/02 10:41:05;;;;;;;7.60;2.95;;;22.80;37.30;;;;;;5053394;28;20402;-81
2021/10/02 10:43:33;;;;;;;6.20;3.10;;;22.60;36.90;;;;;;5053457;28;20115;-81
2021/10/02 10:46:04;;;;;;;7.53;3.63;;;22.60;37.50;;;;;;5054282;28;20040;-82
2021/10/02 10:48:30;;;;;;;4.70;3.25;;;22.50;37.80;;;;;;5054329;28;20479;-81
2021/10/02 10:51:04;;;;;;;6.50;3.72;;;22.40;37.60;;;;;;5055090;28;20040;-81
2021/10/02 10:53:50;;;;;;;8.70;5.27;;;22.30;37.50;;;;;;5054474;28;20475;-81
2021/10/02 10:56:34;;;;;;;7.03;4.30;;;22.30;37.70;;;;;;5053017;28;20102;-81
2021/10/02 10:59:01;;;;;;;6.95;3.88;;;22.20;37.70;;;;;;5053743;28;20052;-80
2021/10/02 11:01:38;;;;;;;9.65;6.07;;;22.30;38.30;;;;;;5053166;28;20024;-81
2021/10/02 11:04:04;;;;;;;6.95;3.85;;;22.60;38.60;;;;;;5052405;28;20083;-80
2021/10/02 11:06:55;;;;;;;8.13;3.95;;;22.70;37.80;;;;;;5009525;28;1242682;-81
2021/10/02 11:09:34;;;;;;;8.20;4.30;;;22.50;37.30;;;;;;5054722;28;20120;-81
2021/10/02 11:12:01;;;;;;;6.32;3.88;;;22.30;37.50;;;;;;5053901;28;20497;-80
2021/10/02 11:15:02;;;;;;;8.00;4.22;;;22.10;37.70;;;;;;5053919;28;20124;-82
2021/10/02 11:17:28;;;;;;;6.93;3.80;;;22.00;37.90;;;;;;4958519;28;20472;-81
2021/10/02 11:19:53;;;;;;;6.72;3.67;;;21.90;37.90;;;;;;5033746;28;20124;-81
2021/10/02 11:23:04;;;;;;;5.80;3.88;;;21.70;38.00;;;;;;5053975;28;20029;-82
2021/10/02 11:25:30;;;;;;;8.30;4.07;;;21.60;38.10;;;;;;5047626;28;20060;-81
2021/10/02 11:28:28;;;;;;;7.68;4.00;;;21.40;38.30;;;;;;5053610;28;20357;-81
2021/10/02 11:30:55;;;;;;;5.00;3.20;;;21.30;38.40;;;;;;5053553;28;20027;-81
2021/10/02 11:33:35;;;;;;;5.55;3.20;;;21.40;38.60;;;;;;5054382;28;20025;-79
2021/10/02 11:36:21;;;;;;;6.88;4.28;;;21.60;38.10;;;;;;5013143;28;20485;-79
2021/10/02 11:38:47;;;;;;;5.25;3.50;;;21.60;38.10;;;;;;5014097;28;20084;-81
2021/10/02 11:41:24;;;;;;;8.20;4.15;;;21.50;37.70;;;;;;5013850;28;20503;-81
2021/10/02 11:43:55;;;;;;;6.65;3.88;;;21.50;38.30;;;;;;5013831;28;20030;-81
2021/10/02 11:46:25;;;;;;;6.90;4.28;;;21.40;38.30;;;;;;5014810;28;20472;-80
2021/10/02 11:48:52;;;;;;;10.45;3.83;;;21.30;38.40;;;;;;5015005;28;20457;-81
2021/10/02 11:51:23;;;;;;;7.10;4.35;;;21.20;38.30;;;;;;5013843;28;20026;-81
2021/10/02 11:53:51;;;;;;;6.15;4.10;;;21.10;38.60;;;;;;5013876;28;20026;-81
2021/10/02 11:56:21;;;;;;;9.60;5.00;;;21.00;38.50;;;;;;5014987;28;20034;-81
2021/10/02 11:58:49;;;;;;;7.18;3.47;;;20.90;39.30;;;;;;5014022;28;20120;-80
2021/10/02 12:01:19;;;;;;;6.45;3.20;;;20.80;38.50;;;;;;5015689;28;20029;-81
2021/10/02 12:03:44;;;;;;;7.50;3.40;;;20.50;38.20;;;;;;5046652;28;20036;-81
2021/10/02 12:06:10;;;;;;;6.10;3.08;;;20.00;38.70;;;;;;5051679;28;20032;-81
2021/10/02 12:08:37;;;;;;;5.53;3.50;;;19.60;39.20;;;;;;5067562;28;20746;-81
2021/10/02 12:11:10;;;;;;;7.72;3.90;;;19.30;40.20;;;;;;5094818;28;20035;-79
2021/10/02 12:13:39;;;;;;;7.65;4.25;;;19.10;40.20;;;;;;5076289;28;20047;-80
2021/10/02 12:16:14;;;;;;;6.07;3.70;;;18.70;40.60;;;;;;5094627;28;20056;-78
2021/10/02 12:18:56;;;;;;;9.32;3.80;;;18.40;41.20;;;;;;5076176;28;20537;-80
2021/10/02 12:21:27;;;;;;;7.22;3.80;;;18.20;41.50;;;;;;5076052;28;20462;-82
2021/10/02 12:24:04;;;;;;;7.65;3.90;;;17.90;42.10;;;;;;5088802;28;20046;-81
2021/10/02 12:26:53;;;;;;;8.07;3.85;;;17.60;42.80;;;;;;5056414;28;20033;-81
2021/10/02 12:29:25;;;;;;;5.38;3.70;;;17.40;43.10;;;;;;5055506;28;20031;-82
2021/10/02 12:31:59;;;;;;;11.73;3.72;;;17.20;43.70;;;;;;5056065;28;20111;-81
2021/10/02 12:34:34;;;;;;;9.70;3.65;;;17.00;44.00;;;;;;5055969;28;20048;-81
2021/10/02 12:37:05;;;;;;;7.20;4.32;;;16.80;44.30;;;;;;5074889;28;20037;-79
2021/10/02 12:39:44;;;;;;;9.05;4.00;;;16.60;44.80;;;;;;5076033;28;20115;-81
2021/10/02 12:42:13;;;;;;;6.20;3.80;;;16.50;45.20;;;;;;5075990;28;20027;-81
2021/10/02 12:44:44;;;;;;;9.60;4.45;;;16.50;45.30;;;;;;5075600;28;20055;-79
2021/10/02 12:47:10;;;;;;;7.70;3.95;;;16.50;45.30;;;;;;5094610;28;20114;-81
2021/10/02 12:49:45;;;;;;;7.05;4.20;;;16.50;45.50;;;;;;5075762;28;20040;-81
2021/10/02 12:52:13;;;;;;;7.97;3.95;;;16.50;45.50;;;;;;5075683;28;20030;-81
2021/10/02 12:54:40;;;;;;;5.43;3.78;;;16.50;45.40;;;;;;5075760;28;20036;-82
2021/10/02 12:57:13;;;;;;;6.25;3.50;;;16.50;45.40;;;;;;5075339;28;20032;-82
2021/10/02 12:59:39;;;;;;;6.32;3.80;;;16.50;45.60;;;;;;5075683;28;20107;-79
2021/10/02 13:02:06;;;;;;;6.35;3.58;;;16.50;45.80;;;;;;5072433;28;20052;-82
2021/10/02 13:04:33;;;;;;;6.10;3.60;;;16.30;45.90;;;;;;5055488;28;20035;-82
2021/10/02 13:07:00;;;;;;;6.28;3.90;;;16.20;46.10;;;;;;5055260;28;20044;-82
2021/10/02 13:09:26;;;;;;;6.90;4.60;;;16.10;46.30;;;;;;5055565;28;20147;-81
2021/10/02 13:11:52;;;;;;;6.63;3.88;;;16.00;46.50;;;;;;5055460;28;20463;-81
2021/10/02 13:14:36;;;;;;;9.85;4.20;;;15.90;46.80;;;;;;5055485;28;20074;-79
2021/10/02 13:17:09;;;;;;;7.70;4.28;;;15.80;48.30;;;;;;5055409;28;20489;-82
2021/10/02 13:19:35;;;;;;;9.40;4.30;;;15.70;47.80;;;;;;5055668;28;20086;-81
2021/10/02 13:22:13;;;;;;;6.75;3.80;;;15.70;48.10;;;;;;5055369;28;20074;-81
2021/10/02 13:24:39;;;;;;;6.70;3.55;;;15.70;48.10;;;;;;5055505;28;20090;-82
2021/10/02 13:27:11;;;;;;;9.40;3.63;;;15.60;48.00;;;;;;5073418;28;20123;-81
2021/10/02 13:29:37;;;;;;;7.72;4.38;;;15.60;48.50;;;;;;5055450;28;20359;-82
2021/10/02 13:32:24;;;;;;;9.68;4.40;;;15.50;48.70;;;;;;5081265;28;20073;-82
2021/10/02 13:34:51;;;;;;;8.85;4.53;;;15.50;49.00;;;;;;5076113;28;20114;-81
2021/10/02 13:37:25;;;;;;;8.18;4.82;;;15.40;49.10;;;;;;5075256;28;20028;-83
2021/10/02 13:39:52;;;;;;;7.85;4.18;;;15.40;49.60;;;;;;5075408;28;20099;-82
2021/10/02 13:42:22;;;;;;;8.07;4.93;;;15.30;49.50;;;;;;5075143;28;20119;-82
2021/10/02 13:44:56;;;;;;;11.45;6.20;;;15.30;49.80;;;;;;5093270;28;20379;-82
2021/10/02 13:47:24;;;;;;;7.93;5.22;;;15.30;50.30;;;;;;5093146;28;20032;-82